createdAt,value
2023-03-02T00:03:04.764Z,2.82
2023-03-02T00:08:10.134Z,2.80
2023-03-02T00:13:14.178Z,2.79
2023-03-02T00:18:17.502Z,2.78
2023-03-02T00:23:20.767Z,2.76
2023-03-02T00:28:24.103Z,2.75
2023-03-02T00:33:27.291Z,2.76
2023-03-02T00:38:30.487Z,2.76
2023-03-02T00:43:33.703Z,2.77
2023-03-02T00:48:37.093Z,2.77
2023-03-02T00:53:41.255Z,2.77
2023-03-02T00:58:45.347Z,2.71
2023-03-02T01:03:48.820Z,2.67
2023-03-02T01:08:53.007Z,2.64
2023-03-02T01:13:56.339Z,2.64
2023-03-02T01:18:59.592Z,2.62
2023-03-02T01:24:02.986Z,2.57
2023-03-02T01:29:06.926Z,2.51
2023-03-02T01:34:10.163Z,2.46
2023-03-02T01:39:17.256Z,2.45
2023-03-02T01:44:41.581Z,2.45
2023-03-02T01:49:50.051Z,2.41
2023-03-02T01:54:56.669Z,2.38
2023-03-02T02:00:09.057Z,2.37
2023-03-02T02:05:23.260Z,2.36
2023-03-02T02:10:27.716Z,2.39
2023-03-02T02:15:31.053Z,2.39
2023-03-02T02:20:41.317Z,2.36
2023-03-02T02:26:13.903Z,2.31
2023-03-02T02:31:26.963Z,2.27
2023-03-02T02:36:35.435Z,2.26
2023-03-02T02:41:43.905Z,2.23
2023-03-02T02:46:46.960Z,2.18
2023-03-02T02:51:50.180Z,2.13
2023-03-02T02:56:54.529Z,2.04
2023-03-02T03:01:58.913Z,2.01
2023-03-02T03:07:06.159Z,2.01
2023-03-02T03:12:24.386Z,1.95
2023-03-02T03:17:29.137Z,1.91
2023-03-02T03:22:38.433Z,1.91
2023-03-02T03:27:43.290Z,1.93
2023-03-02T03:32:46.730Z,1.95
2023-03-02T03:37:52.450Z,1.98
2023-03-02T03:42:56.012Z,1.98
2023-03-02T03:47:59.616Z,1.96
2023-03-02T03:53:04.017Z,1.95
2023-03-02T03:58:07.839Z,1.93
2023-03-02T04:03:11.469Z,1.89
2023-03-02T04:08:14.819Z,1.84
2023-03-02T04:13:18.174Z,1.80
2023-03-02T04:18:21.550Z,1.80
2023-03-02T04:23:24.888Z,1.76
2023-03-02T04:28:28.209Z,1.72
2023-03-02T04:33:32.176Z,1.72
2023-03-02T04:38:35.453Z,1.74
2023-03-02T04:43:38.943Z,1.74
2023-03-02T04:48:42.184Z,1.75
2023-03-02T04:53:45.384Z,1.73
2023-03-02T04:58:49.574Z,1.73
2023-03-02T05:03:53.383Z,1.73
2023-03-02T05:08:59.938Z,1.70
2023-03-02T05:14:06.469Z,1.70
2023-03-02T05:19:12.290Z,1.68
2023-03-02T05:24:15.734Z,1.68
2023-03-02T05:29:19.000Z,1.67
2023-03-02T05:34:22.288Z,1.63
2023-03-02T05:39:25.540Z,1.59
2023-03-02T05:44:28.659Z,1.58
2023-03-02T05:49:33.151Z,1.62
2023-03-02T05:54:36.854Z,1.67
2023-03-02T05:59:40.168Z,1.69
2023-03-02T06:04:44.728Z,1.75
2023-03-02T06:09:48.560Z,1.78
2023-03-02T06:14:53.614Z,1.80
2023-03-02T06:20:11.431Z,1.86
2023-03-02T06:25:18.822Z,1.95
2023-03-02T06:30:24.500Z,2.06
2023-03-02T06:36:03.630Z,2.23
2023-03-02T06:41:07.455Z,5.66
2023-03-02T06:46:11.050Z,7.95
2023-03-02T06:51:14.306Z,6.60
2023-03-02T06:56:17.795Z,5.72
2023-03-02T07:01:21.257Z,5.22
2023-03-02T07:06:24.457Z,4.88
2023-03-02T07:11:27.663Z,4.61
2023-03-02T07:16:31.439Z,4.41
2023-03-02T07:21:34.963Z,4.30
2023-03-02T07:26:38.375Z,4.25
2023-03-02T07:31:44.385Z,4.23
2023-03-02T07:36:48.129Z,4.25
2023-03-02T07:41:51.244Z,4.32
2023-03-02T07:46:57.235Z,4.44
2023-03-02T07:52:00.466Z,4.57
2023-03-02T07:57:04.027Z,4.71
2023-03-02T08:02:07.605Z,4.85
2023-03-02T08:07:10.880Z,4.98
2023-03-02T08:12:14.484Z,5.15
2023-03-02T08:17:17.797Z,5.29
2023-03-02T08:22:21.606Z,5.42
2023-03-02T08:27:24.865Z,5.55
2023-03-02T08:32:28.181Z,5.70
2023-03-02T08:37:31.820Z,5.84
2023-03-02T08:42:35.106Z,6.00
2023-03-02T08:47:38.589Z,6.14
2023-03-02T08:52:41.828Z,6.30
2023-03-02T08:57:45.951Z,6.50
2023-03-02T09:02:49.212Z,6.66
2023-03-02T09:07:52.523Z,6.83
2023-03-02T09:12:55.673Z,6.97
2023-03-02T09:17:58.918Z,7.12
2023-03-02T09:23:02.139Z,7.27
2023-03-02T09:28:05.676Z,7.46
2023-03-02T09:33:09.228Z,7.80
2023-03-02T09:38:16.344Z,8.16
2023-03-02T09:43:45.625Z,8.32
2023-03-02T09:49:10.662Z,8.46
2023-03-02T09:54:19.607Z,8.59
2023-03-02T09:59:27.102Z,8.72
2023-03-02T10:04:39.101Z,8.85
2023-03-02T10:09:43.626Z,8.99
2023-03-02T10:14:57.515Z,9.15
2023-03-02T10:20:06.051Z,9.32
2023-03-02T10:25:31.581Z,9.51
2023-03-02T10:30:37.478Z,9.74
2023-03-02T10:35:50.195Z,9.96
2023-03-02T10:41:06.874Z,10.17
2023-03-02T10:46:12.654Z,10.44
2023-03-02T10:51:27.414Z,10.74
2023-03-02T10:56:32.394Z,11.03
2023-03-02T11:01:36.125Z,11.30
2023-03-02T11:06:39.546Z,11.53
2023-03-02T11:11:52.104Z,11.71
2023-03-02T11:16:56.912Z,11.83
2023-03-02T11:22:54.232Z,11.91
2023-03-02T11:28:05.832Z,12.04
2023-03-02T11:33:18.444Z,12.15
2023-03-02T11:38:41.747Z,12.22
2023-03-02T11:43:44.945Z,12.32
2023-03-02T11:48:53.046Z,12.31
2023-03-02T11:54:19.530Z,12.31
2023-03-02T11:59:26.528Z,12.37
2023-03-02T12:04:38.799Z,12.49
2023-03-02T12:09:43.038Z,12.66
2023-03-02T12:14:46.470Z,12.87
2023-03-02T12:19:55.919Z,13.06
2023-03-02T12:25:19.321Z,13.20
2023-03-02T12:30:28.149Z,13.32
2023-03-02T12:35:34.309Z,13.34
2023-03-02T12:40:57.679Z,13.33
2023-03-02T12:46:32.632Z,13.33
2023-03-02T12:52:22.173Z,13.34
2023-03-02T12:57:28.003Z,13.39
2023-03-02T13:02:36.419Z,13.42
2023-03-02T13:07:50.656Z,13.45
2023-03-02T13:12:54.127Z,13.50
2023-03-02T13:18:00.220Z,13.60
2023-03-02T13:23:03.948Z,13.75
2023-03-02T13:28:34.827Z,13.88
2023-03-02T13:33:44.924Z,14.10
2023-03-02T13:38:52.649Z,14.32
2023-03-02T13:43:57.279Z,14.38
2023-03-02T13:49:11.006Z,14.26
2023-03-02T13:54:17.400Z,13.99
2023-03-02T13:59:22.100Z,13.63
2023-03-02T14:04:25.624Z,13.35
2023-03-02T14:09:29.286Z,13.09
2023-03-02T14:14:38.038Z,12.83
2023-03-02T14:19:41.599Z,12.57
2023-03-02T14:24:46.371Z,12.32
2023-03-02T14:29:49.684Z,12.09
2023-03-02T14:34:53.087Z,11.91
2023-03-02T14:39:57.100Z,11.75
2023-03-02T14:45:00.511Z,11.63
2023-03-02T14:50:05.626Z,11.51
2023-03-02T14:55:32.781Z,11.39
2023-03-02T15:00:36.703Z,11.26
2023-03-02T15:05:42.167Z,11.17
2023-03-02T15:10:51.111Z,11.07
2023-03-02T15:15:54.712Z,10.97
2023-03-02T15:20:58.116Z,10.87
2023-03-02T15:26:04.826Z,10.78
2023-03-02T15:31:14.462Z,10.70
2023-03-02T15:36:18.159Z,10.63
2023-03-02T15:41:21.603Z,10.55
2023-03-02T15:46:25.420Z,10.48
2023-03-02T15:51:28.711Z,10.41
2023-03-02T15:56:42.306Z,10.33
2023-03-02T16:01:46.057Z,10.24
2023-03-02T16:06:49.410Z,10.15
2023-03-02T16:11:53.098Z,10.05
2023-03-02T16:16:56.732Z,9.96
2023-03-02T16:22:00.168Z,9.86
2023-03-02T16:27:05.212Z,9.78
2023-03-02T16:32:09.229Z,9.69
2023-03-02T16:37:12.570Z,9.61
2023-03-02T16:42:16.751Z,9.52
2023-03-02T16:47:20.237Z,9.43
2023-03-02T16:52:24.291Z,9.35
2023-03-02T16:57:27.765Z,9.25
2023-03-02T17:02:31.169Z,9.14
2023-03-02T17:07:34.980Z,9.11
2023-03-02T17:12:38.480Z,9.03
2023-03-02T17:17:42.982Z,8.89
2023-03-02T17:22:47.044Z,8.77
2023-03-02T17:27:50.313Z,8.64
2023-03-02T17:32:53.769Z,8.53
2023-03-02T17:37:57.208Z,8.44
2023-03-02T17:43:00.788Z,8.35
2023-03-02T17:48:05.058Z,8.25
2023-03-02T17:53:08.659Z,8.19
2023-03-02T17:58:12.166Z,8.13
2023-03-02T18:03:15.605Z,8.07
2023-03-02T18:08:18.790Z,8.01
2023-03-02T18:13:22.278Z,7.95
2023-03-02T18:18:25.539Z,7.88
2023-03-02T18:23:29.325Z,7.79
2023-03-02T18:28:32.654Z,7.71
2023-03-02T18:33:35.725Z,7.64
2023-03-02T18:38:38.847Z,7.58
2023-03-02T18:43:43.596Z,7.52
2023-03-02T18:48:50.319Z,7.47
2023-03-02T18:53:54.784Z,7.41
2023-03-02T18:58:57.982Z,7.36
2023-03-02T19:04:02.622Z,7.30
2023-03-02T19:09:06.480Z,7.25
2023-03-02T19:14:10.387Z,7.20
2023-03-02T19:19:14.176Z,7.19
2023-03-02T19:24:17.499Z,7.29
2023-03-02T19:29:22.306Z,7.30
2023-03-02T19:34:25.422Z,7.24
2023-03-02T19:39:28.654Z,7.16
2023-03-02T19:44:33.761Z,7.09
2023-03-02T19:49:37.914Z,7.02
2023-03-02T19:54:43.689Z,6.94
2023-03-02T19:59:46.967Z,6.87
2023-03-02T20:04:51.421Z,6.81
2023-03-02T20:09:54.808Z,6.74
2023-03-02T20:14:58.330Z,6.68
2023-03-02T20:20:03.961Z,6.61
2023-03-02T20:25:09.121Z,6.55
2023-03-02T20:30:22.599Z,6.50
2023-03-02T20:35:29.956Z,6.40
2023-03-02T20:40:34.364Z,6.32
2023-03-02T20:45:37.838Z,6.24
2023-03-02T20:50:42.660Z,6.17
2023-03-02T20:55:46.289Z,6.11
2023-03-02T21:00:49.605Z,6.06
2023-03-02T21:05:52.856Z,6.00
2023-03-02T21:10:56.661Z,5.95
2023-03-02T21:16:00.402Z,5.93
2023-03-02T21:21:04.227Z,5.90
2023-03-02T21:26:11.882Z,5.88
2023-03-02T21:31:18.486Z,5.85
2023-03-02T21:36:24.614Z,5.81
2023-03-02T21:41:28.298Z,5.78
2023-03-02T21:46:34.949Z,5.74
2023-03-02T21:51:38.509Z,5.68
2023-03-02T21:56:43.303Z,5.62
2023-03-02T22:01:46.728Z,5.56
2023-03-02T22:06:49.981Z,5.51
2023-03-02T22:11:53.323Z,5.44
2023-03-02T22:16:58.592Z,5.37
2023-03-02T22:22:03.602Z,5.30
2023-03-02T22:27:22.030Z,5.23
2023-03-02T22:32:30.750Z,5.16
2023-03-02T22:37:34.974Z,5.08
2023-03-02T22:42:38.319Z,5.02
2023-03-02T22:47:48.468Z,4.97
2023-03-02T22:52:53.699Z,4.91
2023-03-02T22:57:57.021Z,4.86
2023-03-02T23:03:00.339Z,4.83
2023-03-02T23:08:23.654Z,4.83
2023-03-02T23:13:40.069Z,4.82
2023-03-02T23:18:44.290Z,4.80
2023-03-02T23:23:49.401Z,4.79
2023-03-02T23:28:52.608Z,4.75
2023-03-02T23:33:55.830Z,4.69
2023-03-02T23:38:59.549Z,4.64
2023-03-02T23:44:03.593Z,4.60
2023-03-02T23:49:07.037Z,4.57
2023-03-02T23:54:10.464Z,4.52
2023-03-02T23:59:13.940Z,4.45
